Time;durP1;ratioP1;P1;durP2;ratioP2;P2;SDS_P1;SDS_P2;PMS_P1;PMS_P2;Temp;Humidity;BMP_temperature;BMP_pressure;BME280_temperature;BME280_humidity;BME280_pressure;Samples;Min_cycle;Max_cycle;Signal;HPM_P1;HPM_P2
2022/08/07 00:00:14;;;;;;;;;2.75;2.75;;;;;20.37;34.22;102170.22;5055429;28;45507;-81
2022/08/07 00:02:39;;;;;;;;;3.00;2.00;;;;;20.33;34.42;102171.28;5055629;28;45361;-81
2022/08/07 00:05:04;;;;;;;;;2.75;2.75;;;;;20.30;34.24;102162.56;5067018;28;68031;-81
2022/08/07 00:07:30;;;;;;;;;2.50;2.50;;;;;20.28;35.43;102166.19;5075067;28;53840;-80
2022/08/07 00:09:55;;;;;;;;;4.00;4.00;;;;;20.25;35.09;102175.16;5074606;28;64611;-81
2022/08/07 00:12:20;;;;;;;;;5.00;3.00;;;;;20.24;34.76;102165.50;5075038;28;55664;-81
2022/08/07 00:14:46;;;;;;;;;5.75;3.00;;;;;20.22;34.69;102169.16;5074803;28;63068;-81
2022/08/07 00:17:11;;;;;;;;;3.00;3.00;;;;;20.20;34.69;102168.38;5074500;28;72334;-81
2022/08/07 00:19:37;;;;;;;;;6.50;3.00;;;;;20.19;34.61;102164.88;5075218;28;45352;-81
2022/08/07 00:22:02;;;;;;;;;4.75;2.00;;;;;20.16;34.70;102159.72;5075327;28;45473;-81
2022/08/07 00:24:27;;;;;;;;;4.50;4.00;;;;;20.11;35.58;102165.22;5075148;28;45320;-81
2022/08/07 00:26:53;;;;;;;;;3.00;3.00;;;;;20.07;35.06;102161.00;5074352;28;75322;-81
2022/08/07 00:29:21;;;;;;;;;2.00;2.00;;;;;20.04;35.07;102152.34;5074925;28;52211;-81
2022/08/07 00:31:46;;;;;;;;;4.50;3.00;;;;;19.98;35.22;102160.56;5047155;28;45234;-81
2022/08/07 00:34:11;;;;;;;;;2.50;2.50;;;;;19.94;35.72;102154.56;5055911;28;66955;-81
2022/08/07 00:36:37;;;;;;;;;2.00;2.00;;;;;19.91;35.42;102154.72;5057990;28;46413;-81
2022/08/07 00:39:03;;;;;;;;;2.00;2.00;;;;;19.88;35.28;102149.56;5058275;28;45385;-81
2022/08/07 00:41:32;;;;;;;;;2.50;2.50;;;;;19.85;35.72;102147.06;5057673;28;59331;-81
2022/08/07 00:43:58;;;;;;;;;2.25;2.25;;;;;19.81;35.48;102143.69;5058242;28;45376;-80
2022/08/07 00:46:23;;;;;;;;;5.50;2.25;;;;;19.78;35.68;102148.25;5057027;28;75416;-81
2022/08/07 00:48:48;;;;;;;;;5.50;3.00;;;;;19.76;35.19;102145.72;5057725;28;56044;-81
2022/08/07 00:51:14;;;;;;;;;3.25;2.00;;;;;19.73;35.21;102143.19;5057995;28;45410;-81
2022/08/07 00:53:40;;;;;;;;;2.00;2.00;;;;;19.70;35.73;102143.28;5057596;28;60254;-81
2022/08/07 00:56:06;;;;;;;;;4.25;2.00;;;;;19.67;35.67;102135.53;5040287;28;46219;-81
2022/08/07 00:58:31;;;;;;;;;2.00;2.00;;;;;19.63;35.67;102123.38;5057997;28;45266;-81
2022/08/07 01:00:57;;;;;;;;;2.00;2.00;;;;;19.60;36.14;102129.66;5057134;28;68289;-81
2022/08/07 01:03:22;;;;;;;;;5.00;3.00;;;;;19.58;35.89;102120.09;5058108;28;45348;-81
2022/08/07 01:05:48;;;;;;;;;2.00;2.00;;;;;19.57;36.19;102118.38;5057223;28;63667;-81
2022/08/07 01:08:13;;;;;;;;;2.00;2.00;;;;;19.54;35.82;102117.59;5060034;28;45388;-81
2022/08/07 01:10:39;;;;;;;;;3.25;2.00;;;;;19.53;36.50;102115.84;5060041;28;45296;-81
2022/08/07 01:13:04;;;;;;;;;2.00;2.00;;;;;19.52;36.23;102110.66;5060132;28;45398;-81
2022/08/07 01:15:31;;;;;;;;;3.00;2.75;;;;;19.49;36.98;102108.16;5077966;28;47786;-81
2022/08/07 01:17:56;;;;;;;;;2.00;2.00;;;;;19.47;36.53;102110.84;5059897;28;45276;-81
2022/08/07 01:20:32;;;;;;;;;3.00;3.00;;;;;19.45;36.88;102112.72;5076875;28;64082;-81
2022/08/07 01:22:58;;;;;;;;;2.75;2.00;;;;;19.44;36.62;102110.13;5078041;28;45419;-81
2022/08/07 01:25:24;;;;;;;;;2.00;2.00;;;;;19.42;36.58;102112.84;5068649;28;45642;-81
2022/08/07 01:27:51;;;;;;;;;2.50;2.50;;;;;19.41;36.47;102113.78;5076606;28;45749;-81
2022/08/07 01:30:17;;;;;;;;;4.00;2.50;;;;;19.39;37.22;102106.84;5077812;27;45289;-81
2022/08/07 01:32:42;;;;;;;;;2.75;2.75;;;;;19.36;36.72;102110.47;5077899;28;45510;-81
2022/08/07 01:35:08;;;;;;;;;1.75;1.75;;;;;19.37;36.88;102113.97;5076500;28;67577;-81
2022/08/07 01:37:35;;;;;;;;;3.00;2.75;;;;;19.36;37.45;102110.47;5077670;27;45471;-81
2022/08/07 01:40:03;;;;;;;;;3.00;2.00;;;;;19.39;36.94;102120.91;5076681;28;45417;-81
2022/08/07 01:42:28;;;;;;;;;4.25;2.25;;;;;19.38;37.23;102118.34;5110116;27;45498;-81
2022/08/07 01:44:54;;;;;;;;;4.00;3.00;;;;;19.36;37.60;102118.41;5109393;27;75501;-80
2022/08/07 01:47:19;;;;;;;;;2.00;2.00;;;;;19.33;37.59;102118.53;5077387;28;51598;-81
2022/08/07 01:49:45;;;;;;;;;1.75;1.75;;;;;19.31;37.54;102115.94;5117540;27;54323;-79
2022/08/07 01:52:11;;;;;;;;;4.00;3.00;;;;;19.31;37.74;102117.72;5080968;28;64014;-81
2022/08/07 01:54:40;;;;;;;;;2.50;2.00;;;;;19.28;37.73;102112.59;5109698;27;65126;-81
2022/08/07 01:57:13;;;;;;;;;2.00;1.75;;;;;19.27;37.13;102110.88;5110497;27;45537;-81
2022/08/07 01:59:50;;;;;;;;;2.00;1.25;;;;;19.25;37.69;102115.38;5110594;27;45430;-80
2022/08/07 02:02:46;;;;;;;;;6.00;3.00;;;;;19.20;37.70;102115.56;5077575;28;45503;-81
2022/08/07 02:05:17;;;;;;;;;2.25;2.25;;;;;19.13;37.67;102112.34;5075664;27;46265;-81
2022/08/07 02:07:49;;;;;;;;;3.00;3.00;;;;;19.11;38.09;102115.94;5076157;28;45800;-80
2022/08/07 02:10:16;;;;;;;;;3.00;3.00;;;;;19.07;38.18;102112.59;5076176;28;45321;-81
2022/08/07 02:12:43;;;;;;;;;2.00;2.00;;;;;19.09;37.88;102116.03;5076251;28;45391;-81
2022/08/07 02:15:09;;;;;;;;;2.00;2.00;;;;;19.08;38.15;102111.69;5075837;28;46581;-81
2022/08/07 02:17:36;;;;;;;;;3.00;2.00;;;;;19.04;37.94;102110.09;5076827;28;45809;-81
2022/08/07 02:20:03;;;;;;;;;2.00;2.00;;;;;19.02;38.36;102118.97;5076030;28;45411;-81
2022/08/07 02:22:30;;;;;;;;;2.50;1.25;;;;;18.98;38.63;102115.66;5075972;28;45454;-81
2022/08/07 02:24:56;;;;;;;;;3.00;3.00;;;;;18.94;38.37;102117.56;5085319;27;46075;-81
2022/08/07 02:27:22;;;;;;;;;3.00;3.00;;;;;18.92;39.06;102115.88;5097601;27;45737;-81
2022/08/07 02:29:49;;;;;;;;;4.00;3.00;;;;;18.89;38.61;102114.25;5097371;27;45324;-80
2022/08/07 02:32:16;;;;;;;;;2.75;1.00;;;;;18.88;38.79;102117.78;5082697;27;45493;-81
2022/08/07 02:34:43;;;;;;;;;2.75;2.75;;;;;18.84;38.72;102116.22;5058710;28;46380;-81
2022/08/07 02:37:09;;;;;;;;;3.00;2.00;;;;;18.81;39.07;102112.84;5058809;28;45868;-81
2022/08/07 02:39:35;;;;;;;;;3.00;2.25;;;;;18.75;39.51;102108.66;5058037;28;67310;-81
2022/08/07 02:42:02;;;;;;;;;4.25;3.75;;;;;18.69;39.56;102106.28;5058698;28;45505;-81
2022/08/07 02:44:28;;;;;;;;;3.00;2.50;;;;;18.67;40.27;102105.47;5076461;28;46073;-81
2022/08/07 02:46:55;;;;;;;;;2.00;2.00;;;;;18.65;38.93;102109.97;5058143;28;45352;-81
2022/08/07 02:49:21;;;;;;;;;3.25;3.25;;;;;18.64;39.51;102109.09;5058747;28;45335;-81
2022/08/07 02:51:47;;;;;;;;;3.25;2.75;;;;;18.65;39.65;102110.81;5076567;28;45368;-81
2022/08/07 02:54:14;;;;;;;;;4.50;3.00;;;;;18.65;39.64;102105.53;5057350;28;75854;-81
2022/08/07 02:56:40;;;;;;;;;3.00;3.00;;;;;18.64;39.47;102105.59;5057798;28;45699;-81
2022/08/07 02:59:15;;;;;;;;;4.00;3.00;;;;;18.62;39.69;102103.00;5058457;28;45331;-81
2022/08/07 03:01:41;;;;;;;;;2.50;2.50;;;;;18.58;39.65;102096.16;5076178;28;45428;-81
2022/08/07 03:04:08;;;;;;;;;2.00;2.00;;;;;18.56;39.55;102095.38;5058111;28;46269;-81
2022/08/07 03:06:35;;;;;;;;;3.75;3.25;;;;;18.51;39.82;102097.31;5058279;28;45414;-81
2022/08/07 03:09:02;;;;;;;;;2.00;2.00;;;;;18.49;40.42;102100.03;5058204;28;45376;-81
2022/08/07 03:11:28;;;;;;;;;3.00;3.00;;;;;18.47;40.47;102104.50;5076571;28;45445;-81
2022/08/07 03:13:54;;;;;;;;;4.00;2.00;;;;;18.45;39.83;102095.81;5057038;28;75057;-81
2022/08/07 03:16:19;;;;;;;;;3.00;2.00;;;;;18.43;40.03;102091.53;5075831;28;45301;-81
2022/08/07 03:18:45;;;;;;;;;2.00;2.00;;;;;18.41;39.98;102091.56;5075631;28;57427;-81
2022/08/07 03:21:11;;;;;;;;;4.00;2.50;;;;;18.43;40.32;102094.16;5075228;28;64543;-81
2022/08/07 03:23:38;;;;;;;;;1.75;1.75;;;;;18.42;40.38;102092.44;5074988;28;72873;-81
2022/08/07 03:26:04;;;;;;;;;2.00;2.00;;;;;18.39;40.63;102088.16;5072278;28;45442;-81
2022/08/07 03:28:30;;;;;;;;;2.00;2.00;;;;;18.36;40.20;102094.38;5074005;28;69538;-81
2022/08/07 03:31:17;;;;;;;;;3.50;2.75;;;;;18.33;40.58;102091.88;5073615;28;65885;-81
2022/08/07 03:33:42;;;;;;;;;4.00;2.00;;;;;18.31;41.22;102092.84;5103328;27;45365;-81
2022/08/07 03:36:08;;;;;;;;;3.00;2.00;;;;;18.30;40.49;102101.69;5109069;27;45720;-81
2022/08/07 03:38:35;;;;;;;;;2.00;2.00;;;;;18.28;41.00;102101.75;5108258;27;66815;-81
2022/08/07 03:41:01;;;;;;;;;2.00;1.75;;;;;18.28;41.00;102098.28;5075993;28;45442;-81
2022/08/07 03:43:26;;;;;;;;;2.50;2.50;;;;;18.27;41.17;102102.66;5075771;28;45522;-81
2022/08/07 03:45:52;;;;;;;;;2.00;2.00;;;;;18.25;41.34;102101.88;5075391;28;45334;-81
2022/08/07 03:48:18;;;;;;;;;3.00;3.00;;;;;18.23;41.03;102108.97;5107983;27;67894;-81
2022/08/07 03:50:44;;;;;;;;;3.25;2.00;;;;;18.23;41.33;102106.34;5075091;28;70173;-81
2022/08/07 03:53:10;;;;;;;;;2.25;2.00;;;;;18.21;41.37;102102.91;5108600;27;45515;-81
2022/08/07 03:55:36;;;;;;;;;4.75;4.00;;;;;18.19;41.28;102102.97;5075804;28;45774;-81
2022/08/07 03:58:01;;;;;;;;;2.75;1.50;;;;;18.18;42.13;102103.00;5073790;28;63451;-81
2022/08/07 04:00:28;;;;;;;;;4.00;3.50;;;;;18.16;41.46;102097.84;5112780;27;70384;-80
2022/08/07 04:02:53;;;;;;;;;3.00;1.50;;;;;18.18;41.41;102103.00;5115902;27;45445;-81
2022/08/07 04:05:20;;;;;;;;;2.00;2.00;;;;;18.17;41.09;102099.53;5107725;27;69124;-81
2022/08/07 04:07:46;;;;;;;;;3.00;2.75;;;;;18.17;41.80;102101.31;5075842;27;45399;-81
2022/08/07 04:10:11;;;;;;;;;2.00;2.00;;;;;18.15;41.99;102100.53;5077459;28;45542;-81
2022/08/07 04:12:37;;;;;;;;;4.50;3.00;;;;;18.15;42.49;102093.47;5079303;28;45470;-81
2022/08/07 04:15:04;;;;;;;;;2.00;2.00;;;;;18.14;42.57;102093.53;5077546;28;45654;-81
2022/08/07 04:17:29;;;;;;;;;3.00;2.50;;;;;18.13;41.93;102095.31;5079146;28;45368;-81
2022/08/07 04:19:54;;;;;;;;;3.50;2.00;;;;;18.13;42.05;102097.94;5076849;28;67831;-81
2022/08/07 04:22:24;;;;;;;;;2.00;2.00;;;;;18.12;42.16;102104.13;5078027;28;70997;-82
2022/08/07 04:24:49;;;;;;;;;2.00;2.00;;;;;18.13;41.86;102105.00;5077506;28;45636;-81
2022/08/07 04:27:16;;;;;;;;;2.75;2.75;;;;;18.11;41.59;102094.50;5094282;27;57816;-81
2022/08/07 04:29:43;;;;;;;;;2.50;2.50;;;;;18.12;42.79;102096.22;5078511;27;45330;-81
2022/08/07 04:32:08;;;;;;;;;2.75;2.00;;;;;18.10;43.13;102095.41;5077232;28;45465;-81
2022/08/07 04:34:34;;;;;;;;;2.00;2.00;;;;;18.09;42.19;102103.38;5078642;28;45381;-81
2022/08/07 04:37:00;;;;;;;;;2.00;1.75;;;;;18.07;42.36;102105.22;5111879;27;45389;-81
2022/08/07 04:39:25;;;;;;;;;2.00;2.00;;;;;18.04;42.26;102093.03;5078777;28;45465;-81
2022/08/07 04:41:50;;;;;;;;;2.00;2.00;;;;;18.04;42.26;102100.94;5111036;27;59777;-80
2022/08/07 04:44:16;;;;;;;;;3.00;2.00;;;;;18.05;42.45;102105.28;5077414;28;68077;-81
2022/08/07 04:46:51;;;;;;;;;2.00;1.75;;;;;18.07;41.88;102107.84;5110757;27;67376;-81
2022/08/07 04:50:06;;;;;;;;;2.00;2.00;;;;;18.08;41.89;102102.53;5078730;28;45584;-81
2022/08/07 04:52:40;;;;;;;;;2.00;2.00;;;;;18.10;43.12;102102.47;5076289;28;46149;-81
2022/08/07 04:55:15;;;;;;;;;3.00;2.00;;;;;18.12;42.50;102103.25;5059282;28;45455;-80
2022/08/07 04:58:18;;;;;;;;;1.25;1.00;;;;;18.12;42.56;102112.03;5075915;28;45417;-81
2022/08/07 05:00:51;;;;;;;;;3.00;3.00;;;;;18.12;43.19;102116.44;5076483;28;45322;-81
2022/08/07 05:03:30;;;;;;;;;4.00;2.50;;;;;18.13;42.24;102115.53;5059145;28;45440;-80
2022/08/07 05:06:08;;;;;;;;;4.00;2.25;;;;;18.13;42.64;102115.53;5075778;27;45583;-81
2022/08/07 05:08:45;;;;;;;;;4.00;2.00;;;;;18.12;42.25;102117.28;5059190;28;45487;-81
2022/08/07 05:11:18;;;;;;;;;1.00;1.00;;;;;18.11;42.22;102122.66;5058814;28;45413;-81
2022/08/07 05:14:14;;;;;;;;;4.25;3.00;;;;;18.11;42.56;102125.28;5058786;28;46672;-81
2022/08/07 05:16:41;;;;;;;;;2.00;2.00;;;;;18.13;42.46;102134.84;5075247;28;45337;-81
2022/08/07 05:19:11;;;;;;;;;3.25;3.00;;;;;18.14;42.38;102133.03;5058396;28;46855;-81
2022/08/07 05:21:37;;;;;;;;;4.00;1.50;;;;;18.13;43.46;102131.34;5058685;28;45448;-81
2022/08/07 05:24:07;;;;;;;;;2.00;2.00;;;;;18.12;43.64;102141.00;5057881;28;68498;-81
2022/08/07 05:26:33;;;;;;;;;3.00;2.00;;;;;18.12;42.88;102140.16;5058363;28;47051;-81
2022/08/07 05:29:02;;;;;;;;;2.00;2.00;;;;;18.17;43.54;102146.13;5055954;28;57823;-81
2022/08/07 05:31:33;;;;;;;;;1.00;1.00;;;;;18.18;43.08;102147.81;5098075;27;45385;-81
2022/08/07 05:34:00;;;;;;;;;2.25;2.25;;;;;18.19;42.43;102146.91;5076486;28;45454;-81
2022/08/07 05:36:26;;;;;;;;;2.25;2.00;;;;;18.21;42.37;102154.75;5077859;28;46091;-81
2022/08/07 05:38:52;;;;;;;;;4.50;1.75;;;;;18.21;42.06;102146.84;5077923;28;45408;-80
2022/08/07 05:41:18;;;;;;;;;2.00;2.00;;;;;18.22;42.69;102146.81;5077343;28;45578;-81
2022/08/07 05:43:47;;;;;;;;;3.00;2.00;;;;;18.22;42.71;102145.94;5077575;28;45458;-81
2022/08/07 05:46:15;;;;;;;;;3.00;1.75;;;;;18.21;43.00;102139.81;5076362;28;45705;-81
2022/08/07 05:48:41;;;;;;;;;1.50;1.50;;;;;18.23;44.12;102150.28;5077768;28;45305;-81
2022/08/07 05:51:07;;;;;;;;;3.00;2.00;;;;;18.23;43.42;102145.88;5110638;27;45455;-81
2022/08/07 05:53:32;;;;;;;;;2.00;2.00;;;;;18.26;42.73;102139.66;5110478;27;45819;-81
2022/08/07 05:55:58;;;;;;;;;4.00;2.00;;;;;18.28;43.01;102135.16;5074725;28;71061;-81
2022/08/07 05:58:25;;;;;;;;;2.25;2.00;;;;;18.30;43.12;102143.88;5110428;27;45326;-81
2022/08/07 06:00:52;;;;;;;;;3.00;2.00;;;;;18.31;42.92;102146.44;5109675;27;67347;-81
2022/08/07 06:03:18;;;;;;;;;2.25;1.75;;;;;18.36;43.28;102143.63;5110323;27;46399;-81
2022/08/07 06:05:45;;;;;;;;;3.00;2.75;;;;;18.40;43.32;102145.22;5109929;27;46137;-81
2022/08/07 06:08:11;;;;;;;;;3.00;1.00;;;;;18.41;43.13;102146.09;5077318;28;45548;-81
2022/08/07 06:10:37;;;;;;;;;1.25;1.25;;;;;18.44;43.03;102151.22;5080483;28;69858;-81
2022/08/07 06:13:03;;;;;;;;;2.00;2.00;;;;;18.47;43.10;102146.69;5091355;28;45327;-80
2022/08/07 06:15:28;;;;;;;;;3.00;2.00;;;;;18.50;42.66;102145.72;5077106;28;45420;-81
2022/08/07 06:17:54;;;;;;;;;2.75;1.75;;;;;18.53;42.98;102149.06;5077312;28;45300;-81
2022/08/07 06:20:21;;;;;;;;;1.50;1.00;;;;;18.56;42.27;102153.38;5076611;28;61679;-81
2022/08/07 06:22:47;;;;;;;;;2.00;2.00;;;;;18.59;43.33;102155.91;5075837;28;45279;-81
2022/08/07 06:25:12;;;;;;;;;3.00;2.00;;;;;18.63;42.86;102154.84;5075161;28;45307;-80
2022/08/07 06:27:37;;;;;;;;;2.00;2.00;;;;;18.66;42.39;102149.44;5075117;28;63730;-81
2022/08/07 06:30:03;;;;;;;;;2.33;2.33;;;;;18.68;42.70;102147.59;5075194;28;59252;-81
2022/08/07 06:32:29;;;;;;;;;2.50;2.50;;;;;18.68;43.10;102152.88;5075699;28;45342;-80
2022/08/07 06:34:55;;;;;;;;;3.25;1.50;;;;;18.70;42.44;102151.06;5076767;28;45750;-81
2022/08/07 06:37:20;;;;;;;;;2.00;2.00;;;;;18.73;43.35;102150.91;5076131;28;59935;-80
2022/08/07 06:39:45;;;;;;;;;5.00;2.25;;;;;18.75;42.69;102145.56;5075640;28;62534;-81
2022/08/07 06:42:19;;;;;;;;;2.50;1.50;;;;;18.76;42.75;102149.94;5076394;28;55482;-80
2022/08/07 06:44:46;;;;;;;;;3.75;1.50;;;;;18.80;42.76;102150.69;5075405;28;45456;-80
2022/08/07 06:47:13;;;;;;;;;3.00;1.00;;;;;18.82;43.26;102148.88;5109732;27;45385;-80
2022/08/07 06:49:39;;;;;;;;;4.00;3.00;;;;;18.85;42.66;102152.25;5109689;27;45280;-80
2022/08/07 06:52:08;;;;;;;;;3.00;1.00;;;;;18.89;42.57;102145.06;5109440;27;45300;-81
2022/08/07 06:54:33;;;;;;;;;2.00;2.00;;;;;18.93;42.80;102149.28;5109182;27;45757;-80
2022/08/07 06:56:59;;;;;;;;;1.75;1.75;;;;;18.97;43.33;102153.50;5109766;27;45292;-80
2022/08/07 06:59:39;;;;;;;;;2.00;2.00;;;;;19.02;42.26;102155.94;5109420;27;45393;-80
2022/08/07 07:02:06;;;;;;;;;2.25;1.75;;;;;19.07;42.18;102157.44;5074916;28;45652;-81
2022/08/07 07:04:32;;;;;;;;;3.00;2.00;;;;;19.13;42.29;102153.72;5076251;27;45606;-81
2022/08/07 07:06:57;;;;;;;;;1.75;1.75;;;;;19.19;42.81;102156.09;5075576;28;55583;-81
2022/08/07 07:09:29;;;;;;;;;1.50;1.50;;;;;19.26;41.86;102154.03;5075227;28;45320;-81
2022/08/07 07:12:06;;;;;;;;;1.00;1.00;;;;;19.34;42.05;102152.78;5076115;28;45362;-81
2022/08/07 07:14:36;;;;;;;;;1.00;1.00;;;;;19.42;41.91;102154.22;5076238;28;45311;-81
2022/08/07 07:17:06;;;;;;;;;1.50;1.50;;;;;19.47;42.13;102150.47;5075160;28;45362;-81
2022/08/07 07:19:34;;;;;;;;;2.00;2.00;;;;;19.51;41.75;102152.03;5075178;28;45376;-81
2022/08/07 07:22:00;;;;;;;;;3.25;2.00;;;;;19.58;41.26;102155.28;5074491;28;45432;-81
2022/08/07 07:24:26;;;;;;;;;2.00;2.00;;;;;19.65;40.86;102150.56;5074329;28;50000;-80
2022/08/07 07:26:53;;;;;;;;;2.75;1.00;;;;;19.70;40.87;102156.50;5075695;28;53126;-81
2022/08/07 07:29:23;;;;;;;;;3.25;1.00;;;;;19.75;40.94;102149.28;5074689;28;47347;-81
2022/08/07 07:31:50;;;;;;;;;3.25;2.00;;;;;19.83;40.78;102148.91;5074411;28;46634;-80
2022/08/07 07:34:22;;;;;;;;;2.00;2.00;;;;;19.89;40.45;102148.63;5108436;27;45831;-81
2022/08/07 07:36:48;;;;;;;;;2.00;2.00;;;;;19.95;40.38;102152.78;5108689;27;45324;-81
2022/08/07 07:39:14;;;;;;;;;2.00;2.00;;;;;19.99;40.78;102141.16;5075222;28;65272;-81
2022/08/07 07:41:41;;;;;;;;;2.25;2.00;;;;;20.05;40.15;102147.00;5107837;27;72008;-81
2022/08/07 07:44:08;;;;;;;;;1.25;1.25;;;;;20.11;40.36;102140.56;5077940;28;73154;-81
2022/08/07 07:46:35;;;;;;;;;2.00;1.00;;;;;20.17;39.86;102142.94;5111672;27;62735;-80
2022/08/07 07:49:02;;;;;;;;;2.00;1.00;;;;;20.23;39.35;102142.66;5112556;27;45201;-81
2022/08/07 07:51:28;;;;;;;;;1.25;1.25;;;;;20.30;39.67;102140.56;5111330;27;68851;-82
2022/08/07 07:53:55;;;;;;;;;2.00;2.00;;;;;20.36;39.35;102145.56;5112507;27;46033;-81
2022/08/07 07:56:22;;;;;;;;;2.00;1.00;;;;;20.44;39.88;102145.19;5111673;27;62599;-81
2022/08/07 07:58:49;;;;;;;;;1.75;1.25;;;;;20.50;38.88;102148.41;5112450;27;45329;-81
2022/08/07 08:01:14;;;;;;;;;1.50;1.50;;;;;20.57;39.10;102148.09;5111390;27;71670;-81
2022/08/07 08:03:40;;;;;;;;;1.00;1.00;;;;;20.63;38.86;102137.25;5077978;27;73604;-81
2022/08/07 08:06:06;;;;;;;;;2.00;2.00;;;;;20.69;38.29;102134.31;5076944;28;65584;-81
2022/08/07 08:08:34;;;;;;;;;2.00;2.00;;;;;20.74;38.66;102134.91;5078086;28;45369;-81
2022/08/07 08:10:59;;;;;;;;;1.00;1.00;;;;;20.78;38.55;102135.63;5077854;28;45504;-81
2022/08/07 08:13:26;;;;;;;;;4.75;2.00;;;;;20.83;38.35;102131.81;5077950;27;45676;-81
2022/08/07 08:15:52;;;;;;;;;3.25;2.00;;;;;20.86;38.54;102133.47;5077987;28;45356;-81
2022/08/07 08:18:19;;;;;;;;;1.25;1.25;;;;;20.92;38.19;102135.78;5079176;27;45492;-81
2022/08/07 08:20:46;;;;;;;;;1.75;1.75;;;;;20.96;38.06;102128.56;5076548;28;74421;-81
2022/08/07 08:28:47;;;;;;;;;2.00;1.00;;;;;21.15;38.03;102128.47;5016446;28;45450;-81
2022/08/07 08:31:17;;;;;;;;;1.25;0.50;;;;;21.19;37.79;102124.72;4994131;28;45444;-81
2022/08/07 08:33:42;;;;;;;;;1.25;1.25;;;;;21.25;37.69;102125.28;4979798;28;45814;-81
2022/08/07 08:36:09;;;;;;;;;2.50;2.00;;;;;21.33;37.68;102114.28;4979648;28;45609;-81
2022/08/07 08:38:38;;;;;;;;;1.00;1.00;;;;;21.42;37.69;102115.59;4996523;28;45548;-81
2022/08/07 08:41:15;;;;;;;;;2.00;2.00;;;;;21.50;37.44;102118.72;4979724;28;45462;-80
2022/08/07 08:44:06;;;;;;;;;1.75;1.50;;;;;21.56;37.14;102126.34;4996182;28;45754;-81
2022/08/07 08:47:05;;;;;;;;;3.00;2.00;;;;;21.61;36.59;102124.28;4979842;28;45476;-81
2022/08/07 08:49:39;;;;;;;;;1.50;1.00;;;;;21.68;36.56;102122.19;4995896;28;45294;-81
2022/08/07 08:52:11;;;;;;;;;1.00;1.00;;;;;21.76;36.43;102105.84;4995863;28;45429;-81
2022/08/07 08:54:57;;;;;;;;;2.00;1.50;;;;;21.84;35.98;102108.94;4978956;28;45760;-81
2022/08/07 08:57:39;;;;;;;;;2.00;2.00;;;;;21.90;35.23;102103.31;4963429;28;45420;-81
2022/08/07 09:00:09;;;;;;;;;1.00;1.00;;;;;21.94;34.92;102110.16;4995997;28;45372;-81
2022/08/07 09:02:46;;;;;;;;;2.00;2.00;;;;;21.98;35.16;102111.69;4995942;28;46318;-81
2022/08/07 09:05:30;;;;;;;;;4.25;1.75;;;;;22.03;35.00;102112.28;5005368;28;45354;-81
2022/08/07 09:08:29;;;;;;;;;4.00;1.75;;;;;22.09;35.30;102110.25;5078345;28;45304;-81
2022/08/07 09:11:17;;;;;;;;;1.00;1.00;;;;;22.15;34.61;102108.09;5064427;27;45425;-81
2022/08/07 09:13:46;;;;;;;;;1.75;1.75;;;;;22.20;34.98;102115.78;5078052;28;45446;-81
2022/08/07 09:16:24;;;;;;;;;4.00;2.00;;;;;22.25;34.37;102111.09;5078132;28;45618;-81
2022/08/07 09:19:14;;;;;;;;;2.50;2.00;;;;;22.34;34.43;102115.91;5059708;28;45456;-81
2022/08/07 09:21:53;;;;;;;;;3.00;3.00;;;;;22.43;34.18;102103.91;5078054;28;45305;-81
2022/08/07 09:25:06;;;;;;;;;3.50;2.00;;;;;22.50;34.38;102096.44;5059442;27;45530;-81
2022/08/07 09:27:59;;;;;;;;;2.75;2.75;;;;;22.61;34.39;102109.94;5015316;28;45859;-81
2022/08/07 09:30:32;;;;;;;;;4.00;2.00;;;;;22.68;34.38;102110.44;5015344;28;45345;-81
2022/08/07 09:32:59;;;;;;;;;2.00;2.00;;;;;22.72;34.42;102104.88;4995072;28;45414;-81
2022/08/07 09:35:37;;;;;;;;;2.25;2.00;;;;;22.80;34.10;102097.28;4995124;28;48562;-81
2022/08/07 09:38:10;;;;;;;;;2.00;2.00;;;;;22.85;33.62;102101.50;4995087;28;45342;-81
2022/08/07 09:41:06;;;;;;;;;1.50;1.50;;;;;22.94;33.47;102107.09;4995401;28;45485;-81
2022/08/07 09:43:53;;;;;;;;;3.50;3.50;;;;;23.03;32.80;102100.41;4995481;28;45491;-81
2022/08/07 09:46:31;;;;;;;;;2.75;2.00;;;;;23.11;32.98;102097.31;4995180;28;46339;-80
2022/08/07 09:49:28;;;;;;;;;4.25;1.75;;;;;23.19;32.67;102101.19;4995044;28;45469;-82
2022/08/07 09:52:14;;;;;;;;;1.50;1.50;;;;;23.27;32.21;102100.75;4995333;28;45464;-81
2022/08/07 09:54:56;;;;;;;;;1.50;1.50;;;;;23.36;32.57;102094.88;4995058;28;45567;-81
2022/08/07 09:57:49;;;;;;;;;4.50;3.25;;;;;23.43;32.57;102091.81;4994987;28;46463;-81
2022/08/07 10:00:20;;;;;;;;;2.75;2.00;;;;;23.52;32.54;102085.94;4994995;28;45389;-81
2022/08/07 10:03:23;;;;;;;;;3.50;2.50;;;;;23.62;32.70;102096.84;5035543;28;45255;-81
2022/08/07 10:06:12;;;;;;;;;2.50;2.50;;;;;23.71;32.55;102081.16;5073735;28;45344;-81
2022/08/07 10:08:51;;;;;;;;;2.25;2.25;;;;;23.82;32.02;102085.00;5059296;28;46587;-81
2022/08/07 10:11:35;;;;;;;;;3.50;2.00;;;;;23.86;32.50;102081.19;5058867;28;45332;-81
2022/08/07 10:14:25;;;;;;;;;2.00;2.00;;;;;23.92;31.37;102075.44;5077306;28;45339;-81
2022/08/07 10:17:08;;;;;;;;;4.00;3.00;;;;;23.91;31.36;102066.63;5076944;28;45272;-81
2022/08/07 10:19:35;;;;;;;;;2.00;2.00;;;;;23.91;31.23;102079.09;5058958;28;46955;-81
2022/08/07 10:22:06;;;;;;;;;3.50;3.00;;;;;23.91;30.74;102077.28;5058988;28;45348;-81
2022/08/07 10:24:44;;;;;;;;;2.50;2.50;;;;;23.93;30.55;102070.03;5077087;28;45365;-81
2022/08/07 10:27:28;;;;;;;;;1.75;1.75;;;;;24.01;30.62;102064.22;5077003;28;45444;-81
2022/08/07 10:30:08;;;;;;;;;2.75;2.75;;;;;24.09;30.95;102063.72;5076490;28;45534;-83
2022/08/07 10:32:59;;;;;;;;;3.00;3.00;;;;;24.17;31.11;102064.09;5042055;28;45731;-81
2022/08/07 10:36:10;;;;;;;;;3.50;2.00;;;;;24.26;30.19;102062.63;5048084;28;45341;-81
2022/08/07 10:38:48;;;;;;;;;3.25;3.00;;;;;24.33;30.47;102048.81;5040921;28;45400;-81
2022/08/07 10:41:39;;;;;;;;;3.00;3.00;;;;;24.41;29.72;102048.31;5038515;28;46383;-80
2022/08/07 10:44:10;;;;;;;;;3.00;2.00;;;;;24.48;29.96;102060.25;5038469;28;45830;-80
2022/08/07 10:47:31;;;;;;;;;3.00;3.00;;;;;24.57;29.47;102049.97;5056305;28;45296;-81
2022/08/07 10:50:09;;;;;;;;;2.75;2.75;;;;;24.62;29.12;102045.19;4993709;28;45632;-81
2022/08/07 10:53:06;;;;;;;;;2.50;2.50;;;;;24.68;29.11;102058.94;4994099;28;45923;-81
2022/08/07 10:55:45;;;;;;;;;2.00;2.00;;;;;24.76;29.85;102047.75;4994286;28;45438;-81
2022/08/07 10:58:51;;;;;;;;;2.00;2.00;;;;;24.90;29.46;102036.16;4994331;28;45452;-81
2022/08/07 11:01:37;;;;;;;;;2.50;2.50;;;;;24.99;29.11;102029.34;4954851;28;45518;-81
2022/08/07 11:04:08;;;;;;;;;3.00;3.00;;;;;25.09;28.78;102038.38;4935285;28;45422;-80
2022/08/07 11:06:58;;;;;;;;;3.00;3.00;;;;;25.18;28.67;102034.22;4935744;28;45538;-81
2022/08/07 11:09:42;;;;;;;;;2.00;2.00;;;;;25.27;28.67;102028.28;4935948;28;45321;-81
2022/08/07 11:12:21;;;;;;;;;3.25;3.00;;;;;25.35;28.51;102020.56;4935522;28;45507;-80
2022/08/07 11:14:53;;;;;;;;;4.00;2.50;;;;;25.44;27.94;102025.25;4919219;28;46255;-81
2022/08/07 11:17:45;;;;;;;;;5.25;3.75;;;;;25.56;27.69;102020.03;4919138;28;45841;-81
2022/08/07 11:20:18;;;;;;;;;3.75;3.75;;;;;25.67;27.89;102015.59;4935581;28;45394;-81
2022/08/07 11:23:04;;;;;;;;;3.00;3.00;;;;;25.80;27.19;102012.03;4927189;28;45220;-81
2022/08/07 11:25:35;;;;;;;;;2.00;2.00;;;;;25.93;28.28;101998.66;4989953;28;48857;-80
2022/08/07 11:28:07;;;;;;;;;3.25;3.25;;;;;26.11;27.44;102004.44;4997033;28;45325;-81
2022/08/07 11:30:44;;;;;;;;;4.50;4.00;;;;;26.28;27.32;102004.03;5013677;28;45519;-81
2022/08/07 11:33:26;;;;;;;;;3.00;3.00;;;;;26.44;26.77;102009.91;5017292;28;45350;-81
2022/08/07 11:35:53;;;;;;;;;3.25;3.00;;;;;26.59;26.72;102001.69;5017995;28;46099;-81
2022/08/07 11:38:29;;;;;;;;;3.00;3.00;;;;;26.80;26.34;102000.06;5034387;28;45360;-82
2022/08/07 11:41:00;;;;;;;;;6.00;3.50;;;;;27.02;26.54;101996.56;5034522;28;45329;-81
2022/08/07 11:43:49;;;;;;;;;6.00;2.75;;;;;27.35;26.15;101989.50;5017989;28;45473;-81
2022/08/07 11:46:29;;;;;;;;;3.25;3.25;;;;;27.76;24.93;101987.09;5034344;28;46266;-81
2022/08/07 11:49:18;;;;;;;;;5.00;3.00;;;;;28.50;24.62;101988.97;5034311;28;45482;-81